sensor_id;sensor_type;location;lat;lon;timestamp;P1;durP1;ratioP1;P2;durP2;ratioP2
21181;SDS011;10749;46.296;7.524;2023-03-11T00:00:05;2.30;;;0.80;;
21181;SDS011;10749;46.296;7.524;2023-03-11T00:02:37;0.87;;;0.70;;
21181;SDS011;10749;46.296;7.524;2023-03-11T00:05:02;1.00;;;0.60;;
21181;SDS011;10749;46.296;7.524;2023-03-11T00:07:27;1.30;;;0.70;;
21181;SDS011;10749;46.296;7.524;2023-03-11T00:09:53;2.17;;;0.70;;
21181;SDS011;10749;46.296;7.524;2023-03-11T00:12:18;0.70;;;0.70;;
21181;SDS011;10749;46.296;7.524;2023-03-11T00:14:43;0.93;;;0.57;;
21181;SDS011;10749;46.296;7.524;2023-03-11T00:17:08;0.97;;;0.70;;
21181;SDS011;10749;46.296;7.524;2023-03-11T00:19:34;0.60;;;0.53;;
21181;SDS011;10749;46.296;7.524;2023-03-11T00:22:00;0.40;;;0.40;;
21181;SDS011;10749;46.296;7.524;2023-03-11T00:24:26;0.90;;;0.53;;
21181;SDS011;10749;46.296;7.524;2023-03-11T00:26:51;0.50;;;0.40;;
21181;SDS011;10749;46.296;7.524;2023-03-11T00:29:16;0.97;;;0.40;;
21181;SDS011;10749;46.296;7.524;2023-03-11T00:31:42;0.50;;;0.40;;
21181;SDS011;10749;46.296;7.524;2023-03-11T00:34:07;0.87;;;0.43;;
21181;SDS011;10749;46.296;7.524;2023-03-11T00:36:32;1.13;;;0.40;;
21181;SDS011;10749;46.296;7.524;2023-03-11T00:38:58;1.57;;;0.50;;
21181;SDS011;10749;46.296;7.524;2023-03-11T00:41:26;0.60;;;0.40;;
21181;SDS011;10749;46.296;7.524;2023-03-11T00:43:51;0.60;;;0.40;;
21181;SDS011;10749;46.296;7.524;2023-03-11T00:46:17;0.80;;;0.40;;
21181;SDS011;10749;46.296;7.524;2023-03-11T00:48:42;0.40;;;0.30;;
21181;SDS011;10749;46.296;7.524;2023-03-11T00:51:10;0.60;;;0.40;;
21181;SDS011;10749;46.296;7.524;2023-03-11T00:53:38;1.30;;;0.40;;
21181;SDS011;10749;46.296;7.524;2023-03-11T00:56:07;1.93;;;0.40;;
21181;SDS011;10749;46.296;7.524;2023-03-11T00:58:34;0.50;;;0.40;;
21181;SDS011;10749;46.296;7.524;2023-03-11T01:01:00;1.43;;;0.50;;
21181;SDS011;10749;46.296;7.524;2023-03-11T01:03:31;0.97;;;0.40;;
21181;SDS011;10749;46.296;7.524;2023-03-11T01:05:56;1.37;;;0.33;;
21181;SDS011;10749;46.296;7.524;2023-03-11T01:08:21;0.77;;;0.40;;
21181;SDS011;10749;46.296;7.524;2023-03-11T01:10:47;1.80;;;0.40;;
21181;SDS011;10749;46.296;7.524;2023-03-11T01:13:12;0.40;;;0.40;;
21181;SDS011;10749;46.296;7.524;2023-03-11T01:15:37;0.67;;;0.40;;
21181;SDS011;10749;46.296;7.524;2023-03-11T01:18:03;0.73;;;0.40;;
21181;SDS011;10749;46.296;7.524;2023-03-11T01:20:29;1.27;;;0.60;;
21181;SDS011;10749;46.296;7.524;2023-03-11T01:22:55;0.43;;;0.43;;
21181;SDS011;10749;46.296;7.524;2023-03-11T01:25:21;0.67;;;0.47;;
21181;SDS011;10749;46.296;7.524;2023-03-11T01:27:47;0.60;;;0.50;;
21181;SDS011;10749;46.296;7.524;2023-03-11T01:30:13;1.30;;;0.70;;
21181;SDS011;10749;46.296;7.524;2023-03-11T01:32:43;0.70;;;0.70;;
21181;SDS011;10749;46.296;7.524;2023-03-11T01:35:09;0.70;;;0.60;;
21181;SDS011;10749;46.296;7.524;2023-03-11T01:37:38;1.03;;;0.80;;
21181;SDS011;10749;46.296;7.524;2023-03-11T01:40:04;1.20;;;0.70;;
21181;SDS011;10749;46.296;7.524;2023-03-11T01:42:31;1.00;;;0.80;;
21181;SDS011;10749;46.296;7.524;2023-03-11T01:44:57;0.73;;;0.70;;
21181;SDS011;10749;46.296;7.524;2023-03-11T01:47:33;0.40;;;0.40;;
21181;SDS011;10749;46.296;7.524;2023-03-11T01:50:04;1.43;;;0.80;;
21181;SDS011;10749;46.296;7.524;2023-03-11T01:52:32;1.03;;;0.50;;
21181;SDS011;10749;46.296;7.524;2023-03-11T01:54:57;0.80;;;0.60;;
21181;SDS011;10749;46.296;7.524;2023-03-11T01:57:23;1.00;;;0.70;;
21181;SDS011;10749;46.296;7.524;2023-03-11T01:59:50;1.13;;;0.70;;
21181;SDS011;10749;46.296;7.524;2023-03-11T02:02:38;1.10;;;0.67;;
21181;SDS011;10749;46.296;7.524;2023-03-11T02:05:06;2.07;;;1.00;;
21181;SDS011;10749;46.296;7.524;2023-03-11T02:07:32;1.40;;;0.90;;
21181;SDS011;10749;46.296;7.524;2023-03-11T02:09:57;0.70;;;0.70;;
21181;SDS011;10749;46.296;7.524;2023-03-11T02:12:23;0.83;;;0.63;;
21181;SDS011;10749;46.296;7.524;2023-03-11T02:14:49;0.90;;;0.70;;
21181;SDS011;10749;46.296;7.524;2023-03-11T02:17:17;0.90;;;0.70;;
21181;SDS011;10749;46.296;7.524;2023-03-11T02:22:36;1.00;;;0.90;;
21181;SDS011;10749;46.296;7.524;2023-03-11T02:25:07;1.00;;;0.73;;
21181;SDS011;10749;46.296;7.524;2023-03-11T02:27:40;1.83;;;0.80;;
21181;SDS011;10749;46.296;7.524;2023-03-11T02:30:10;1.30;;;1.00;;
21181;SDS011;10749;46.296;7.524;2023-03-11T02:32:37;1.40;;;1.30;;
21181;SDS011;10749;46.296;7.524;2023-03-11T02:35:04;1.43;;;1.07;;
21181;SDS011;10749;46.296;7.524;2023-03-11T02:37:30;1.20;;;1.10;;
21181;SDS011;10749;46.296;7.524;2023-03-11T02:40:08;1.20;;;1.10;;
21181;SDS011;10749;46.296;7.524;2023-03-11T02:42:46;0.93;;;0.93;;
21181;SDS011;10749;46.296;7.524;2023-03-11T02:45:13;0.80;;;0.80;;
21181;SDS011;10749;46.296;7.524;2023-03-11T02:47:41;0.90;;;0.90;;
21181;SDS011;10749;46.296;7.524;2023-03-11T02:50:08;0.90;;;0.60;;
21181;SDS011;10749;46.296;7.524;2023-03-11T02:52:37;2.03;;;0.67;;
21181;SDS011;10749;46.296;7.524;2023-03-11T02:55:03;0.80;;;0.80;;
21181;SDS011;10749;46.296;7.524;2023-03-11T02:57:29;1.50;;;0.70;;
21181;SDS011;10749;46.296;7.524;2023-03-11T02:59:54;0.90;;;0.60;;
21181;SDS011;10749;46.296;7.524;2023-03-11T03:02:19;0.50;;;0.50;;
21181;SDS011;10749;46.296;7.524;2023-03-11T03:04:45;1.37;;;0.60;;
21181;SDS011;10749;46.296;7.524;2023-03-11T03:07:10;0.70;;;0.60;;
21181;SDS011;10749;46.296;7.524;2023-03-11T03:09:35;0.70;;;0.40;;
21181;SDS011;10749;46.296;7.524;2023-03-11T03:12:02;0.67;;;0.50;;
21181;SDS011;10749;46.296;7.524;2023-03-11T03:14:28;0.70;;;0.60;;
21181;SDS011;10749;46.296;7.524;2023-03-11T03:16:53;0.87;;;0.80;;
21181;SDS011;10749;46.296;7.524;2023-03-11T03:19:19;0.90;;;0.70;;
21181;SDS011;10749;46.296;7.524;2023-03-11T03:21:44;0.90;;;0.77;;
21181;SDS011;10749;46.296;7.524;2023-03-11T03:24:10;1.10;;;0.80;;
21181;SDS011;10749;46.296;7.524;2023-03-11T03:26:35;1.83;;;0.77;;
21181;SDS011;10749;46.296;7.524;2023-03-11T03:29:01;0.80;;;0.70;;
21181;SDS011;10749;46.296;7.524;2023-03-11T03:31:28;0.50;;;0.50;;
21181;SDS011;10749;46.296;7.524;2023-03-11T03:33:53;0.57;;;0.57;;
21181;SDS011;10749;46.296;7.524;2023-03-11T03:36:18;0.50;;;0.40;;
21181;SDS011;10749;46.296;7.524;2023-03-11T03:38:43;1.53;;;0.30;;
21181;SDS011;10749;46.296;7.524;2023-03-11T03:41:09;0.40;;;0.30;;
21181;SDS011;10749;46.296;7.524;2023-03-11T03:43:37;0.20;;;0.20;;
21181;SDS011;10749;46.296;7.524;2023-03-11T03:46:03;0.63;;;0.23;;
21181;SDS011;10749;46.296;7.524;2023-03-11T03:48:29;0.37;;;0.20;;
21181;SDS011;10749;46.296;7.524;2023-03-11T03:50:55;0.30;;;0.17;;
21181;SDS011;10749;46.296;7.524;2023-03-11T03:53:21;0.40;;;0.30;;
21181;SDS011;10749;46.296;7.524;2023-03-11T03:55:46;0.57;;;0.20;;
21181;SDS011;10749;46.296;7.524;2023-03-11T03:58:12;0.17;;;0.17;;
21181;SDS011;10749;46.296;7.524;2023-03-11T04:00:37;0.10;;;0.10;;
21181;SDS011;10749;46.296;7.524;2023-03-11T04:03:03;0.10;;;0.10;;
21181;SDS011;10749;46.296;7.524;2023-03-11T04:05:29;0.50;;;0.20;;
21181;SDS011;10749;46.296;7.524;2023-03-11T04:07:54;0.53;;;0.10;;
21181;SDS011;10749;46.296;7.524;2023-03-11T04:10:19;0.83;;;0.10;;
21181;SDS011;10749;46.296;7.524;2023-03-11T04:12:45;0.53;;;0.10;;
21181;SDS011;10749;46.296;7.524;2023-03-11T04:15:10;0.20;;;0.20;;
21181;SDS011;10749;46.296;7.524;2023-03-11T04:17:36;1.03;;;0.60;;
21181;SDS011;10749;46.296;7.524;2023-03-11T04:20:02;0.80;;;0.50;;
21181;SDS011;10749;46.296;7.524;2023-03-11T04:22:31;0.63;;;0.30;;
21181;SDS011;10749;46.296;7.524;2023-03-11T04:24:56;0.23;;;0.17;;
21181;SDS011;10749;46.296;7.524;2023-03-11T04:27:22;1.03;;;0.20;;
21181;SDS011;10749;46.296;7.524;2023-03-11T04:29:47;0.93;;;0.57;;
21181;SDS011;10749;46.296;7.524;2023-03-11T04:32:12;0.43;;;0.30;;
21181;SDS011;10749;46.296;7.524;2023-03-11T04:34:38;0.33;;;0.23;;
21181;SDS011;10749;46.296;7.524;2023-03-11T04:37:03;0.50;;;0.20;;
21181;SDS011;10749;46.296;7.524;2023-03-11T04:39:28;0.20;;;0.20;;
21181;SDS011;10749;46.296;7.524;2023-03-11T04:41:53;0.30;;;0.20;;
21181;SDS011;10749;46.296;7.524;2023-03-11T04:44:19;1.20;;;0.30;;
21181;SDS011;10749;46.296;7.524;2023-03-11T04:46:44;0.50;;;0.20;;
21181;SDS011;10749;46.296;7.524;2023-03-11T04:49:09;0.73;;;0.17;;
21181;SDS011;10749;46.296;7.524;2023-03-11T04:51:35;0.10;;;0.10;;
21181;SDS011;10749;46.296;7.524;2023-03-11T04:54:00;0.20;;;0.20;;
21181;SDS011;10749;46.296;7.524;2023-03-11T04:56:25;0.87;;;0.17;;
21181;SDS011;10749;46.296;7.524;2023-03-11T04:58:50;0.47;;;0.20;;
21181;SDS011;10749;46.296;7.524;2023-03-11T05:01:16;0.63;;;0.30;;
21181;SDS011;10749;46.296;7.524;2023-03-11T05:03:41;0.33;;;0.30;;
21181;SDS011;10749;46.296;7.524;2023-03-11T05:06:06;0.57;;;0.30;;
21181;SDS011;10749;46.296;7.524;2023-03-11T05:08:32;0.23;;;0.20;;
21181;SDS011;10749;46.296;7.524;2023-03-11T05:10:57;0.30;;;0.20;;
21181;SDS011;10749;46.296;7.524;2023-03-11T05:13:22;1.10;;;0.30;;
21181;SDS011;10749;46.296;7.524;2023-03-11T05:15:47;0.30;;;0.30;;
21181;SDS011;10749;46.296;7.524;2023-03-11T05:18:13;0.83;;;0.30;;
21181;SDS011;10749;46.296;7.524;2023-03-11T05:20:39;0.40;;;0.30;;
21181;SDS011;10749;46.296;7.524;2023-03-11T05:23:04;0.50;;;0.50;;
21181;SDS011;10749;46.296;7.524;2023-03-11T05:25:29;0.40;;;0.40;;
21181;SDS011;10749;46.296;7.524;2023-03-11T05:27:55;0.40;;;0.30;;
21181;SDS011;10749;46.296;7.524;2023-03-11T05:30:21;0.30;;;0.30;;
21181;SDS011;10749;46.296;7.524;2023-03-11T05:32:46;0.40;;;0.30;;
21181;SDS011;10749;46.296;7.524;2023-03-11T05:35:12;0.30;;;0.20;;
21181;SDS011;10749;46.296;7.524;2023-03-11T05:37:38;0.97;;;0.30;;
21181;SDS011;10749;46.296;7.524;2023-03-11T05:40:07;0.73;;;0.50;;
21181;SDS011;10749;46.296;7.524;2023-03-11T05:42:34;0.87;;;0.50;;
21181;SDS011;10749;46.296;7.524;2023-03-11T05:45:00;0.40;;;0.40;;
21181;SDS011;10749;46.296;7.524;2023-03-11T05:47:25;0.60;;;0.40;;
21181;SDS011;10749;46.296;7.524;2023-03-11T05:49:51;1.37;;;0.50;;
21181;SDS011;10749;46.296;7.524;2023-03-11T05:52:16;1.20;;;0.53;;
21181;SDS011;10749;46.296;7.524;2023-03-11T05:54:41;1.37;;;0.40;;
21181;SDS011;10749;46.296;7.524;2023-03-11T05:57:07;1.03;;;0.40;;
21181;SDS011;10749;46.296;7.524;2023-03-11T05:59:32;0.60;;;0.60;;
21181;SDS011;10749;46.296;7.524;2023-03-11T06:01:59;0.50;;;0.50;;
21181;SDS011;10749;46.296;7.524;2023-03-11T06:04:25;0.70;;;0.50;;
21181;SDS011;10749;46.296;7.524;2023-03-11T06:06:50;0.40;;;0.40;;
21181;SDS011;10749;46.296;7.524;2023-03-11T06:09:16;0.63;;;0.60;;
21181;SDS011;10749;46.296;7.524;2023-03-11T06:11:41;1.17;;;0.97;;
21181;SDS011;10749;46.296;7.524;2023-03-11T06:14:09;1.63;;;0.90;;
21181;SDS011;10749;46.296;7.524;2023-03-11T06:16:36;0.53;;;0.50;;
21181;SDS011;10749;46.296;7.524;2023-03-11T06:19:01;1.03;;;0.90;;
21181;SDS011;10749;46.296;7.524;2023-03-11T06:21:27;1.93;;;0.80;;
21181;SDS011;10749;46.296;7.524;2023-03-11T06:23:52;0.67;;;0.67;;
21181;SDS011;10749;46.296;7.524;2023-03-11T06:26:18;1.67;;;0.90;;
21181;SDS011;10749;46.296;7.524;2023-03-11T06:28:44;2.23;;;0.87;;
21181;SDS011;10749;46.296;7.524;2023-03-11T06:31:12;0.77;;;0.70;;
21181;SDS011;10749;46.296;7.524;2023-03-11T06:33:40;4.23;;;2.70;;
21181;SDS011;10749;46.296;7.524;2023-03-11T06:36:06;3.37;;;1.93;;
21181;SDS011;10749;46.296;7.524;2023-03-11T06:38:32;1.87;;;1.00;;
21181;SDS011;10749;46.296;7.524;2023-03-11T06:40:59;0.87;;;0.73;;
21181;SDS011;10749;46.296;7.524;2023-03-11T06:43:38;1.43;;;0.80;;
21181;SDS011;10749;46.296;7.524;2023-03-11T06:46:07;0.80;;;0.80;;
21181;SDS011;10749;46.296;7.524;2023-03-11T06:48:37;1.20;;;1.10;;
21181;SDS011;10749;46.296;7.524;2023-03-11T06:51:03;1.30;;;1.10;;
21181;SDS011;10749;46.296;7.524;2023-03-11T06:53:29;1.17;;;1.00;;
21181;SDS011;10749;46.296;7.524;2023-03-11T06:55:58;1.70;;;0.83;;
21181;SDS011;10749;46.296;7.524;2023-03-11T06:58:25;0.73;;;0.73;;
21181;SDS011;10749;46.296;7.524;2023-03-11T07:00:51;1.13;;;1.03;;
21181;SDS011;10749;46.296;7.524;2023-03-11T07:03:16;2.27;;;0.80;;
21181;SDS011;10749;46.296;7.524;2023-03-11T07:05:41;0.60;;;0.60;;
21181;SDS011;10749;46.296;7.524;2023-03-11T07:08:07;1.27;;;0.90;;
21181;SDS011;10749;46.296;7.524;2023-03-11T07:10:32;1.43;;;0.90;;
21181;SDS011;10749;46.296;7.524;2023-03-11T07:12:57;0.93;;;0.70;;
21181;SDS011;10749;46.296;7.524;2023-03-11T07:15:22;1.60;;;0.83;;
21181;SDS011;10749;46.296;7.524;2023-03-11T07:17:48;1.00;;;0.80;;
21181;SDS011;10749;46.296;7.524;2023-03-11T07:20:13;0.77;;;0.67;;
21181;SDS011;10749;46.296;7.524;2023-03-11T07:22:39;1.67;;;1.10;;
21181;SDS011;10749;46.296;7.524;2023-03-11T07:25:04;1.00;;;0.70;;
21181;SDS011;10749;46.296;7.524;2023-03-11T07:27:29;0.83;;;0.70;;
21181;SDS011;10749;46.296;7.524;2023-03-11T07:29:55;1.10;;;0.70;;
21181;SDS011;10749;46.296;7.524;2023-03-11T07:32:20;0.80;;;0.80;;
21181;SDS011;10749;46.296;7.524;2023-03-11T07:34:45;1.07;;;0.97;;
21181;SDS011;10749;46.296;7.524;2023-03-11T07:37:10;1.00;;;0.90;;
21181;SDS011;10749;46.296;7.524;2023-03-11T07:39:36;3.00;;;1.30;;
21181;SDS011;10749;46.296;7.524;2023-03-11T07:42:02;1.20;;;0.90;;
21181;SDS011;10749;46.296;7.524;2023-03-11T07:44:28;1.43;;;0.90;;
21181;SDS011;10749;46.296;7.524;2023-03-11T07:46:53;0.70;;;0.50;;
21181;SDS011;10749;46.296;7.524;2023-03-11T07:49:19;1.10;;;0.67;;
21181;SDS011;10749;46.296;7.524;2023-03-11T07:51:44;0.90;;;0.60;;
21181;SDS011;10749;46.296;7.524;2023-03-11T07:54:10;0.60;;;0.40;;
21181;SDS011;10749;46.296;7.524;2023-03-11T07:56:36;0.80;;;0.60;;
21181;SDS011;10749;46.296;7.524;2023-03-11T07:59:02;0.77;;;0.60;;
21181;SDS011;10749;46.296;7.524;2023-03-11T08:01:29;0.70;;;0.70;;
21181;SDS011;10749;46.296;7.524;2023-03-11T08:04:00;1.00;;;0.80;;
21181;SDS011;10749;46.296;7.524;2023-03-11T08:06:28;1.20;;;0.87;;
21181;SDS011;10749;46.296;7.524;2023-03-11T08:08:55;1.60;;;1.27;;
21181;SDS011;10749;46.296;7.524;2023-03-11T08:11:21;1.00;;;0.87;;
21181;SDS011;10749;46.296;7.524;2023-03-11T08:13:47;1.07;;;0.90;;
21181;SDS011;10749;46.296;7.524;2023-03-11T08:16:15;0.80;;;0.60;;
21181;SDS011;10749;46.296;7.524;2023-03-11T08:18:42;1.60;;;0.90;;
21181;SDS011;10749;46.296;7.524;2023-03-11T08:21:10;1.33;;;1.00;;
21181;SDS011;10749;46.296;7.524;2023-03-11T08:23:36;2.23;;;1.00;;
21181;SDS011;10749;46.296;7.524;2023-03-11T08:26:02;0.93;;;0.83;;
21181;SDS011;10749;46.296;7.524;2023-03-11T08:28:32;0.87;;;0.80;;
21181;SDS011;10749;46.296;7.524;2023-03-11T08:30:58;0.87;;;0.70;;
21181;SDS011;10749;46.296;7.524;2023-03-11T08:33:24;0.80;;;0.80;;
21181;SDS011;10749;46.296;7.524;2023-03-11T08:35:49;2.73;;;1.10;;
21181;SDS011;10749;46.296;7.524;2023-03-11T08:38:14;1.00;;;0.90;;
21181;SDS011;10749;46.296;7.524;2023-03-11T08:40:40;1.20;;;0.77;;
21181;SDS011;10749;46.296;7.524;2023-03-11T08:43:05;0.87;;;0.80;;
21181;SDS011;10749;46.296;7.524;2023-03-11T08:45:31;1.60;;;0.60;;
21181;SDS011;10749;46.296;7.524;2023-03-11T08:47:57;0.50;;;0.50;;
21181;SDS011;10749;46.296;7.524;2023-03-11T08:50:22;0.53;;;0.50;;
21181;SDS011;10749;46.296;7.524;2023-03-11T08:52:48;0.40;;;0.40;;
21181;SDS011;10749;46.296;7.524;2023-03-11T08:55:14;2.30;;;0.40;;
21181;SDS011;10749;46.296;7.524;2023-03-11T08:57:42;0.60;;;0.50;;
21181;SDS011;10749;46.296;7.524;2023-03-11T09:00:08;2.13;;;0.70;;
21181;SDS011;10749;46.296;7.524;2023-03-11T09:02:34;1.47;;;0.60;;
21181;SDS011;10749;46.296;7.524;2023-03-11T09:04:59;0.67;;;0.53;;
21181;SDS011;10749;46.296;7.524;2023-03-11T09:07:25;1.50;;;0.87;;
21181;SDS011;10749;46.296;7.524;2023-03-11T09:09:50;1.00;;;0.90;;
21181;SDS011;10749;46.296;7.524;2023-03-11T09:12:15;1.30;;;0.80;;
21181;SDS011;10749;46.296;7.524;2023-03-11T09:14:41;2.10;;;0.77;;
21181;SDS011;10749;46.296;7.524;2023-03-11T09:17:08;0.87;;;0.80;;
21181;SDS011;10749;46.296;7.524;2023-03-11T09:19:35;1.40;;;0.73;;
21181;SDS011;10749;46.296;7.524;2023-03-11T09:22:02;0.80;;;0.63;;
21181;SDS011;10749;46.296;7.524;2023-03-11T09:24:28;1.00;;;0.70;;
21181;SDS011;10749;46.296;7.524;2023-03-11T09:26:56;1.40;;;0.50;;
21181;SDS011;10749;46.296;7.524;2023-03-11T09:29:21;0.70;;;0.57;;
21181;SDS011;10749;46.296;7.524;2023-03-11T09:31:46;0.57;;;0.50;;
21181;SDS011;10749;46.296;7.524;2023-03-11T09:34:12;1.53;;;0.70;;
21181;SDS011;10749;46.296;7.524;2023-03-11T09:36:39;0.83;;;0.80;;
21181;SDS011;10749;46.296;7.524;2023-03-11T09:39:05;0.80;;;0.60;;
21181;SDS011;10749;46.296;7.524;2023-03-11T09:41:45;1.83;;;0.93;;
21181;SDS011;10749;46.296;7.524;2023-03-11T09:44:36;0.90;;;0.70;;
21181;SDS011;10749;46.296;7.524;2023-03-11T09:47:08;1.20;;;0.83;;
21181;SDS011;10749;46.296;7.524;2023-03-11T09:52:18;0.50;;;0.43;;
21181;SDS011;10749;46.296;7.524;2023-03-11T09:54:54;0.50;;;0.47;;
21181;SDS011;10749;46.296;7.524;2023-03-11T09:57:24;1.13;;;0.50;;
21181;SDS011;10749;46.296;7.524;2023-03-11T09:59:54;0.60;;;0.60;;
21181;SDS011;10749;46.296;7.524;2023-03-11T10:02:21;1.23;;;0.77;;
21181;SDS011;10749;46.296;7.524;2023-03-11T10:04:52;0.90;;;0.70;;
21181;SDS011;10749;46.296;7.524;2023-03-11T10:07:31;1.10;;;0.90;;
21181;SDS011;10749;46.296;7.524;2023-03-11T10:10:03;2.13;;;0.90;;
21181;SDS011;10749;46.296;7.524;2023-03-11T10:12:42;0.73;;;0.60;;
21181;SDS011;10749;46.296;7.524;2023-03-11T10:18:19;1.33;;;0.80;;
21181;SDS011;10749;46.296;7.524;2023-03-11T10:21:11;0.60;;;0.50;;
21181;SDS011;10749;46.296;7.524;2023-03-11T10:29:16;0.80;;;0.67;;
21181;SDS011;10749;46.296;7.524;2023-03-11T10:31:49;0.60;;;0.50;;
21181;SDS011;10749;46.296;7.524;2023-03-11T10:34:18;0.90;;;0.57;;
21181;SDS011;10749;46.296;7.524;2023-03-11T10:36:58;10.07;;;3.93;;
21181;SDS011;10749;46.296;7.524;2023-03-11T10:39:31;6.40;;;2.23;;
21181;SDS011;10749;46.296;7.524;2023-03-11T10:42:04;1.83;;;1.27;;
21181;SDS011;10749;46.296;7.524;2023-03-11T10:44:35;4.13;;;1.47;;
21181;SDS011;10749;46.296;7.524;2023-03-11T10:47:03;3.00;;;1.80;;
21181;SDS011;10749;46.296;7.524;2023-03-11T10:49:29;1.10;;;0.73;;
21181;SDS011;10749;46.296;7.524;2023-03-11T10:51:54;2.50;;;0.90;;
21181;SDS011;10749;46.296;7.524;2023-03-11T10:56:58;3.90;;;1.10;;
21181;SDS011;10749;46.296;7.524;2023-03-11T10:59:31;2.60;;;1.07;;
21181;SDS011;10749;46.296;7.524;2023-03-11T11:02:03;0.70;;;0.60;;
21181;SDS011;10749;46.296;7.524;2023-03-11T11:04:46;1.00;;;0.80;;
21181;SDS011;10749;46.296;7.524;2023-03-11T11:07:26;4.30;;;1.73;;
21181;SDS011;10749;46.296;7.524;2023-03-11T11:12:35;0.70;;;0.70;;
21181;SDS011;10749;46.296;7.524;2023-03-11T11:15:02;1.43;;;0.83;;
21181;SDS011;10749;46.296;7.524;2023-03-11T11:17:29;1.80;;;0.83;;
21181;SDS011;10749;46.296;7.524;2023-03-11T11:19:56;0.50;;;0.50;;
21181;SDS011;10749;46.296;7.524;2023-03-11T11:22:23;1.07;;;0.90;;
21181;SDS011;10749;46.296;7.524;2023-03-11T11:24:51;0.80;;;0.60;;
21181;SDS011;10749;46.296;7.524;2023-03-11T11:27:20;0.93;;;0.70;;
21181;SDS011;10749;46.296;7.524;2023-03-11T11:32:33;0.97;;;0.70;;
21181;SDS011;10749;46.296;7.524;2023-03-11T11:35:00;0.73;;;0.70;;
21181;SDS011;10749;46.296;7.524;2023-03-11T11:37:29;0.80;;;0.50;;
21181;SDS011;10749;46.296;7.524;2023-03-11T11:39:58;0.97;;;0.60;;
21181;SDS011;10749;46.296;7.524;2023-03-11T11:42:32;1.00;;;0.70;;
21181;SDS011;10749;46.296;7.524;2023-03-11T11:44:59;0.80;;;0.70;;
21181;SDS011;10749;46.296;7.524;2023-03-11T11:47:33;1.03;;;0.90;;
21181;SDS011;10749;46.296;7.524;2023-03-11T11:50:00;2.07;;;0.97;;
21181;SDS011;10749;46.296;7.524;2023-03-11T11:52:36;1.23;;;1.00;;
21181;SDS011;10749;46.296;7.524;2023-03-11T11:55:26;1.17;;;0.60;;
21181;SDS011;10749;46.296;7.524;2023-03-11T11:57:54;0.80;;;0.80;;
21181;SDS011;10749;46.296;7.524;2023-03-11T12:00:23;1.07;;;0.70;;
21181;SDS011;10749;46.296;7.524;2023-03-11T12:05:59;1.53;;;1.00;;
21181;SDS011;10749;46.296;7.524;2023-03-11T12:08:34;2.27;;;0.93;;
21181;SDS011;10749;46.296;7.524;2023-03-11T12:16:59;1.10;;;0.90;;
21181;SDS011;10749;46.296;7.524;2023-03-11T12:19:30;2.50;;;0.70;;
21181;SDS011;10749;46.296;7.524;2023-03-11T12:24:40;0.70;;;0.60;;
21181;SDS011;10749;46.296;7.524;2023-03-11T12:27:19;1.30;;;1.00;;
21181;SDS011;10749;46.296;7.524;2023-03-11T12:30:00;2.40;;;0.90;;
21181;SDS011;10749;46.296;7.524;2023-03-11T12:32:33;2.50;;;1.10;;
21181;SDS011;10749;46.296;7.524;2023-03-11T12:37:44;3.00;;;0.70;;
21181;SDS011;10749;46.296;7.524;2023-03-11T12:43:22;1.83;;;0.70;;
21181;SDS011;10749;46.296;7.524;2023-03-11T12:45:48;1.33;;;0.60;;
21181;SDS011;10749;46.296;7.524;2023-03-11T12:53:58;1.90;;;0.80;;
21181;SDS011;10749;46.296;7.524;2023-03-11T12:56:49;1.13;;;0.70;;
21181;SDS011;10749;46.296;7.524;2023-03-11T13:08:12;1.07;;;0.57;;
21181;SDS011;10749;46.296;7.524;2023-03-11T13:10:47;1.60;;;0.80;;
21181;SDS011;10749;46.296;7.524;2023-03-11T13:15:57;1.00;;;0.80;;
21181;SDS011;10749;46.296;7.524;2023-03-11T13:18:43;0.80;;;0.60;;
21181;SDS011;10749;46.296;7.524;2023-03-11T13:24:03;0.50;;;0.40;;
21181;SDS011;10749;46.296;7.524;2023-03-11T13:29:24;0.73;;;0.50;;
21181;SDS011;10749;46.296;7.524;2023-03-11T13:37:50;0.50;;;0.50;;
21181;SDS011;10749;46.296;7.524;2023-03-11T13:40:43;0.90;;;0.67;;
21181;SDS011;10749;46.296;7.524;2023-03-11T13:43:17;1.27;;;0.53;;
21181;SDS011;10749;46.296;7.524;2023-03-11T13:45:46;1.73;;;0.57;;
21181;SDS011;10749;46.296;7.524;2023-03-11T13:51:01;0.60;;;0.50;;
21181;SDS011;10749;46.296;7.524;2023-03-11T13:53:33;1.00;;;0.70;;
21181;SDS011;10749;46.296;7.524;2023-03-11T13:56:04;1.47;;;1.07;;
21181;SDS011;10749;46.296;7.524;2023-03-11T13:58:30;1.40;;;0.93;;
21181;SDS011;10749;46.296;7.524;2023-03-11T14:00:59;0.73;;;0.60;;
21181;SDS011;10749;46.296;7.524;2023-03-11T14:03:27;0.80;;;0.70;;
21181;SDS011;10749;46.296;7.524;2023-03-11T14:05:56;0.90;;;0.70;;
21181;SDS011;10749;46.296;7.524;2023-03-11T14:08:27;0.50;;;0.40;;
21181;SDS011;10749;46.296;7.524;2023-03-11T14:13:26;0.60;;;0.60;;
21181;SDS011;10749;46.296;7.524;2023-03-11T14:21:03;0.67;;;0.47;;
21181;SDS011;10749;46.296;7.524;2023-03-11T14:23:35;0.80;;;0.53;;
21181;SDS011;10749;46.296;7.524;2023-03-11T14:26:10;0.60;;;0.60;;
21181;SDS011;10749;46.296;7.524;2023-03-11T14:28:39;0.70;;;0.50;;
21181;SDS011;10749;46.296;7.524;2023-03-11T14:31:18;1.60;;;0.70;;
21181;SDS011;10749;46.296;7.524;2023-03-11T14:34:12;2.23;;;1.23;;
21181;SDS011;10749;46.296;7.524;2023-03-11T14:36:45;1.70;;;0.80;;
21181;SDS011;10749;46.296;7.524;2023-03-11T14:42:18;1.80;;;1.07;;
21181;SDS011;10749;46.296;7.524;2023-03-11T14:50:19;2.47;;;1.37;;
21181;SDS011;10749;46.296;7.524;2023-03-11T14:55:22;3.63;;;1.80;;
21181;SDS011;10749;46.296;7.524;2023-03-11T14:57:56;2.30;;;1.60;;
21181;SDS011;10749;46.296;7.524;2023-03-11T15:03:46;1.63;;;1.10;;
21181;SDS011;10749;46.296;7.524;2023-03-11T15:06:24;2.93;;;1.20;;
21181;SDS011;10749;46.296;7.524;2023-03-11T15:08:55;1.13;;;0.80;;
21181;SDS011;10749;46.296;7.524;2023-03-11T15:11:24;2.63;;;0.90;;
21181;SDS011;10749;46.296;7.524;2023-03-11T15:13:52;1.97;;;1.00;;
21181;SDS011;10749;46.296;7.524;2023-03-11T15:16:24;1.90;;;0.43;;
21181;SDS011;10749;46.296;7.524;2023-03-11T15:18:53;0.40;;;0.40;;
21181;SDS011;10749;46.296;7.524;2023-03-11T15:21:20;0.83;;;0.60;;
21181;SDS011;10749;46.296;7.524;2023-03-11T15:23:48;0.50;;;0.50;;
21181;SDS011;10749;46.296;7.524;2023-03-11T15:26:22;1.03;;;0.80;;
21181;SDS011;10749;46.296;7.524;2023-03-11T15:28:54;0.90;;;0.73;;
21181;SDS011;10749;46.296;7.524;2023-03-11T15:33:47;0.57;;;0.50;;
21181;SDS011;10749;46.296;7.524;2023-03-11T15:39:20;0.80;;;0.70;;
21181;SDS011;10749;46.296;7.524;2023-03-11T15:41:46;1.30;;;0.87;;
21181;SDS011;10749;46.296;7.524;2023-03-11T15:44:24;0.80;;;0.63;;
21181;SDS011;10749;46.296;7.524;2023-03-11T15:47:16;2.30;;;0.63;;
21181;SDS011;10749;46.296;7.524;2023-03-11T15:49:43;1.77;;;0.90;;
21181;SDS011;10749;46.296;7.524;2023-03-11T15:52:10;0.93;;;0.60;;
21181;SDS011;10749;46.296;7.524;2023-03-11T15:54:35;1.00;;;0.80;;
21181;SDS011;10749;46.296;7.524;2023-03-11T15:57:02;1.20;;;0.93;;
21181;SDS011;10749;46.296;7.524;2023-03-11T15:59:29;1.10;;;0.80;;
21181;SDS011;10749;46.296;7.524;2023-03-11T16:01:55;2.00;;;1.20;;
21181;SDS011;10749;46.296;7.524;2023-03-11T16:04:20;1.60;;;1.10;;
21181;SDS011;10749;46.296;7.524;2023-03-11T16:06:46;1.13;;;0.70;;
21181;SDS011;10749;46.296;7.524;2023-03-11T16:09:12;2.73;;;1.00;;
21181;SDS011;10749;46.296;7.524;2023-03-11T16:11:39;2.00;;;0.90;;
21181;SDS011;10749;46.296;7.524;2023-03-11T16:14:08;1.10;;;0.70;;
21181;SDS011;10749;46.296;7.524;2023-03-11T16:16:38;0.60;;;0.50;;
21181;SDS011;10749;46.296;7.524;2023-03-11T16:19:03;0.80;;;0.60;;
21181;SDS011;10749;46.296;7.524;2023-03-11T16:21:32;0.90;;;0.70;;
21181;SDS011;10749;46.296;7.524;2023-03-11T16:24:04;2.43;;;1.00;;
21181;SDS011;10749;46.296;7.524;2023-03-11T16:26:29;1.17;;;0.53;;
21181;SDS011;10749;46.296;7.524;2023-03-11T16:28:55;2.30;;;1.40;;
21181;SDS011;10749;46.296;7.524;2023-03-11T16:31:20;0.90;;;0.70;;